Welcome to Des Moines Iowa Weather. I am an independent private personal weather station on the Northwest Side of Des Moines, Iowa. Just East of Windsor Heights and just West of Glendale . This site is also mobile friendly.

There are no active watches, warnings or advisories


Visit our other weather sites:

Historical Data

Weather Station Setup



Weather Underground History page Text

Daily Summary for January 22, 2018 Units:  Both    English   Metric
« Previous Day
Next Day »
Daily Weekly Monthly Yearly Custom
  High: Low: Average:
Temperature: 46.0 °F /  7.8 °C 29.0 °F /  -1.7 °C 37.9 °F /  3.3 °C
Dew Point: 46.0 °F /  7.8 °C 28.0 °F /  -2.2 °C 37.3 °F /  2.9 °C
Humidity: 98 % 95 % 97 %
Wind Speed: 12.0 mph /  19.3 km/h - 2.1 mph /  3.4 km/h
Wind Gust: 18.0 mph /  29 km/h - -
Wind:- - SE
Pressure: 29.72 in /  1006.3 hPa 29.36 in /  994.1 hPa -
Precipitation: 0.44 in /  11.18 mm    
Historical Graphs
 
 
Tabular Data for January 22, 2018
Time Temperature Dew Point Pressure Wind Wind Speed Wind Gust Humidity Rainfall Rate (Hourly)
00:21 38.2 °F /  3.4 °C 38.0 °F /  3.3 °C 29.61 in /  1002.6 hPa Calm   8.0 mph /  12.9 km/h 97 % 0.26 in /  6.6 mm
00:36 38.5 °F /  3.6 °C 38.0 °F /  3.3 °C 29.60 in /  1002.3 hPa Calm   7.0 mph /  11.3 km/h 97 % 0.34 in /  8.64 mm
01:06 37.8 °F /  3.2 °C 37.0 °F /  2.8 °C 29.57 in /  1001.2 hPa NNE 4.0 mph /  6.4 km/h 8.0 mph /  12.9 km/h 97 % 0.22 in /  5.59 mm
01:36 37.7 °F /  3.2 °C 37.0 °F /  2.8 °C 29.56 in /  1000.9 hPa NE 5.0 mph /  8 km/h 9.0 mph /  14.5 km/h 97 % 0.06 in /  1.52 mm
01:51 37.7 °F /  3.2 °C 37.0 °F /  2.8 °C 29.54 in /  1000.2 hPa ENE 1.0 mph /  1.6 km/h 11.0 mph /  17.7 km/h 97 % 0.03 in /  0.76 mm
02:06 37.7 °F /  3.2 °C 37.0 °F /  2.8 °C 29.54 in /  1000.2 hPa ENE 4.0 mph /  6.4 km/h 8.0 mph /  12.9 km/h 97 % 0.01 in /  0.25 mm
02:21 37.7 °F /  3.2 °C 37.0 °F /  2.8 °C 29.54 in /  1000.2 hPa Calm   6.0 mph /  9.7 km/h 97 % 0.00 in /  0 mm
02:51 37.8 °F /  3.2 °C 37.0 °F /  2.8 °C 29.52 in /  999.5 hPa NE 2.0 mph /  3.2 km/h 10.0 mph /  16.1 km/h 97 % 0.00 in /  0 mm
03:06 37.8 °F /  3.2 °C 37.0 °F /  2.8 °C 29.51 in /  999.2 hPa East 9.0 mph /  14.5 km/h 11.0 mph /  17.7 km/h 97 % 0.00 in /  0 mm
03:21 37.8 °F /  3.2 °C 37.0 °F /  2.8 °C 29.51 in /  999.2 hPa NNE 4.0 mph /  6.4 km/h 8.0 mph /  12.9 km/h 97 % 0.00 in /  0 mm
03:36 37.9 °F /  3.3 °C 37.0 °F /  2.8 °C 29.51 in /  999.2 hPa Calm   5.0 mph /  8 km/h 97 % 0.00 in /  0 mm
04:06 37.9 °F /  3.3 °C 37.0 °F /  2.8 °C 29.46 in /  997.5 hPa East 4.0 mph /  6.4 km/h 11.0 mph /  17.7 km/h 97 % 0.03 in /  0.76 mm
04:21 38.0 °F /  3.3 °C 37.0 °F /  2.8 °C 29.46 in /  997.5 hPa NE 3.0 mph /  4.8 km/h 10.0 mph /  16.1 km/h 97 % 0.03 in /  0.76 mm
04:36 38.2 °F /  3.4 °C 38.0 °F /  3.3 °C 29.45 in /  997.2 hPa NE 4.0 mph /  6.4 km/h 9.0 mph /  14.5 km/h 97 % 0.03 in /  0.76 mm
05:06 38.5 °F /  3.6 °C 38.0 °F /  3.3 °C 29.43 in /  996.5 hPa ENE 4.0 mph /  6.4 km/h 8.0 mph /  12.9 km/h 97 % 0.00 in /  0 mm
05:21 38.4 °F /  3.6 °C 38.0 °F /  3.3 °C 29.42 in /  996.2 hPa ENE 3.0 mph /  4.8 km/h 9.0 mph /  14.5 km/h 97 % 0.00 in /  0 mm
05:36 38.3 °F /  3.5 °C 38.0 °F /  3.3 °C 29.41 in /  995.8 hPa NE 6.0 mph /  9.7 km/h 9.0 mph /  14.5 km/h 97 % 0.00 in /  0 mm
06:06 38.1 °F /  3.4 °C 37.0 °F /  2.8 °C 29.41 in /  995.8 hPa NE 2.0 mph /  3.2 km/h 8.0 mph /  12.9 km/h 97 % 0.00 in /  0 mm
06:36 38.4 °F /  3.6 °C 38.0 °F /  3.3 °C 29.40 in /  995.5 hPa NE 2.0 mph /  3.2 km/h 7.0 mph /  11.3 km/h 97 % 0.00 in /  0 mm
06:51 38.7 °F /  3.7 °C 38.0 °F /  3.3 °C 29.39 in /  995.1 hPa North 3.0 mph /  4.8 km/h 9.0 mph /  14.5 km/h 98 % 0.00 in /  0 mm
07:52 39.3 °F /  4.1 °C 39.0 °F /  3.9 °C 29.37 in /  994.5 hPa Calm   6.0 mph /  9.7 km/h 98 % 0.07 in /  1.78 mm
08:22 39.8 °F /  4.3 °C 39.0 °F /  3.9 °C 29.37 in /  994.5 hPa Calm   4.0 mph /  6.4 km/h 98 % 0.05 in /  1.27 mm
08:52 40.5 °F /  4.7 °C 40.0 °F /  4.4 °C 29.36 in /  994.1 hPa Calm   4.0 mph /  6.4 km/h 98 % 0.00 in /  0 mm
09:07 41.0 °F /  5 °C 41.0 °F /  5 °C 29.37 in /  994.5 hPa Calm   3.0 mph /  4.8 km/h 98 % 0.00 in /  0 mm
09:22 41.5 °F /  5.3 °C 41.0 °F /  5 °C 29.36 in /  994.1 hPa Calm     98 % 0.00 in /  0 mm
09:37 42.4 °F /  5.8 °C 42.0 °F /  5.6 °C 29.38 in /  994.8 hPa Calm   2.0 mph /  3.2 km/h 98 % 0.00 in /  0 mm
09:52 42.6 °F /  5.9 °C 42.0 °F /  5.6 °C 29.38 in /  994.8 hPa ENE 1.0 mph /  1.6 km/h 1.0 mph /  1.6 km/h 98 % 0.00 in /  0 mm
10:07 45.5 °F /  7.5 °C 45.0 °F /  7.2 °C 29.37 in /  994.5 hPa SSW 1.0 mph /  1.6 km/h 5.0 mph /  8 km/h 98 % 0.00 in /  0 mm
10:22 46.0 °F /  7.8 °C 46.0 °F /  7.8 °C 29.38 in /  994.8 hPa Calm   8.0 mph /  12.9 km/h 98 % 0.00 in /  0 mm
10:37 45.6 °F /  7.6 °C 45.0 °F /  7.2 °C 29.39 in /  995.1 hPa SSE 2.0 mph /  3.2 km/h 6.0 mph /  9.7 km/h 98 % 0.00 in /  0 mm
10:53 45.2 °F /  7.3 °C 45.0 °F /  7.2 °C 29.39 in /  995.1 hPa Calm   4.0 mph /  6.4 km/h 98 % 0.00 in /  0 mm
11:08 45.0 °F /  7.2 °C 45.0 °F /  7.2 °C 29.38 in /  994.8 hPa Calm   4.0 mph /  6.4 km/h 98 % 0.00 in /  0 mm
11:23 44.3 °F /  6.8 °C 44.0 °F /  6.7 °C 29.38 in /  994.8 hPa ESE 2.0 mph /  3.2 km/h 8.0 mph /  12.9 km/h 97 % 0.00 in /  0 mm
11:38 44.0 °F /  6.7 °C 44.0 °F /  6.7 °C 29.38 in /  994.8 hPa Calm   3.0 mph /  4.8 km/h 98 % 0.00 in /  0 mm
11:53 43.8 °F /  6.6 °C 43.0 °F /  6.1 °C 29.37 in /  994.5 hPa Calm   3.0 mph /  4.8 km/h 97 % 0.00 in /  0 mm
12:08 43.5 °F /  6.4 °C 43.0 °F /  6.1 °C 29.36 in /  994.1 hPa South 1.0 mph /  1.6 km/h 5.0 mph /  8 km/h 97 % 0.00 in /  0 mm
12:23 43.3 °F /  6.3 °C 43.0 °F /  6.1 °C 29.36 in /  994.1 hPa SSW 2.0 mph /  3.2 km/h 4.0 mph /  6.4 km/h 98 % 0.00 in /  0 mm
12:38 42.7 °F /  5.9 °C 42.0 °F /  5.6 °C 29.37 in /  994.5 hPa South 1.0 mph /  1.6 km/h 4.0 mph /  6.4 km/h 97 % 0.00 in /  0 mm
12:53 42.1 °F /  5.6 °C 41.0 °F /  5 °C 29.36 in /  994.1 hPa Calm   5.0 mph /  8 km/h 97 % 0.00 in /  0 mm
13:08 41.6 °F /  5.3 °C 41.0 °F /  5 °C 29.36 in /  994.1 hPa SSW 2.0 mph /  3.2 km/h 4.0 mph /  6.4 km/h 97 % 0.00 in /  0 mm
13:23 40.4 °F /  4.7 °C 40.0 °F /  4.4 °C 29.36 in /  994.1 hPa Calm   9.0 mph /  14.5 km/h 97 % 0.00 in /  0 mm
13:38 39.9 °F /  4.4 °C 39.0 °F /  3.9 °C 29.37 in /  994.5 hPa Calm   2.0 mph /  3.2 km/h 97 % 0.00 in /  0 mm
13:53 39.3 °F /  4.1 °C 39.0 °F /  3.9 °C 29.38 in /  994.8 hPa North 1.0 mph /  1.6 km/h 5.0 mph /  8 km/h 97 % 0.00 in /  0 mm
14:08 39.0 °F /  3.9 °C 38.0 °F /  3.3 °C 29.38 in /  994.8 hPa Calm   4.0 mph /  6.4 km/h 97 % 0.01 in /  0.25 mm
14:23 38.8 °F /  3.8 °C 38.0 °F /  3.3 °C 29.39 in /  995.1 hPa Calm   2.0 mph /  3.2 km/h 97 % 0.02 in /  0.51 mm
14:38 38.4 °F /  3.6 °C 38.0 °F /  3.3 °C 29.39 in /  995.1 hPa Calm   3.0 mph /  4.8 km/h 97 % 0.03 in /  0.76 mm
14:54 38.1 °F /  3.4 °C 37.0 °F /  2.8 °C 29.40 in /  995.5 hPa SSW 2.0 mph /  3.2 km/h 6.0 mph /  9.7 km/h 97 % 0.03 in /  0.76 mm
15:08 37.7 °F /  3.2 °C 37.0 °F /  2.8 °C 29.40 in /  995.5 hPa South 1.0 mph /  1.6 km/h 5.0 mph /  8 km/h 97 % 0.02 in /  0.51 mm
15:23 37.4 °F /  3 °C 37.0 °F /  2.8 °C 29.41 in /  995.8 hPa Calm   6.0 mph /  9.7 km/h 97 % 0.01 in /  0.25 mm
15:38 37.0 °F /  2.8 °C 36.0 °F /  2.2 °C 29.41 in /  995.8 hPa SSW 3.0 mph /  4.8 km/h 4.0 mph /  6.4 km/h 97 % 0.00 in /  0 mm
15:53 36.9 °F /  2.7 °C 36.0 °F /  2.2 °C 29.41 in /  995.8 hPa SSW 1.0 mph /  1.6 km/h 4.0 mph /  6.4 km/h 97 % 0.00 in /  0 mm
16:08 36.8 °F /  2.7 °C 36.0 °F /  2.2 °C 29.43 in /  996.5 hPa SSW 1.0 mph /  1.6 km/h 3.0 mph /  4.8 km/h 97 % 0.00 in /  0 mm
16:23 36.8 °F /  2.7 °C 36.0 °F /  2.2 °C 29.44 in /  996.8 hPa Calm     97 % 0.00 in /  0 mm
16:38 36.8 °F /  2.7 °C 36.0 °F /  2.2 °C 29.45 in /  997.2 hPa Calm     97 % 0.01 in /  0.25 mm
16:53 36.7 °F /  2.6 °C 36.0 °F /  2.2 °C 29.46 in /  997.5 hPa Calm     97 % 0.01 in /  0.25 mm
17:08 36.6 °F /  2.6 °C 36.0 °F /  2.2 °C 29.47 in /  997.9 hPa Calm     97 % 0.01 in /  0.25 mm
17:23 36.5 °F /  2.5 °C 36.0 °F /  2.2 °C 29.47 in /  997.9 hPa Calm     97 % 0.02 in /  0.51 mm
17:38 36.4 °F /  2.4 °C 36.0 °F /  2.2 °C 29.47 in /  997.9 hPa Calm     97 % 0.01 in /  0.25 mm
17:53 36.2 °F /  2.3 °C 36.0 °F /  2.2 °C 29.48 in /  998.2 hPa Calm     97 % 0.01 in /  0.25 mm
18:08 36.1 °F /  2.3 °C 35.0 °F /  1.7 °C 29.48 in /  998.2 hPa Calm     97 % 0.01 in /  0.25 mm
18:23 36.1 °F /  2.3 °C 35.0 °F /  1.7 °C 29.50 in /  998.9 hPa Calm     97 % 0.00 in /  0 mm
18:53 35.6 °F /  2 °C 35.0 °F /  1.7 °C 29.52 in /  999.5 hPa North 3.0 mph /  4.8 km/h 9.0 mph /  14.5 km/h 96 % 0.01 in /  0.25 mm
19:08 34.8 °F /  1.6 °C 34.0 °F /  1.1 °C 29.53 in /  999.9 hPa North 3.0 mph /  4.8 km/h 10.0 mph /  16.1 km/h 97 % 0.02 in /  0.51 mm
19:38 33.6 °F /  0.9 °C 33.0 °F /  0.6 °C 29.54 in /  1000.2 hPa North 4.0 mph /  6.4 km/h 10.0 mph /  16.1 km/h 97 % 0.02 in /  0.51 mm
19:53 33.2 °F /  0.7 °C 32.0 °F /  0 °C 29.55 in /  1000.6 hPa North 5.0 mph /  8 km/h 14.0 mph /  22.5 km/h 96 % 0.01 in /  0.25 mm
20:08 32.9 °F /  0.5 °C 32.0 °F /  0 °C 29.57 in /  1001.2 hPa North 12.0 mph /  19.3 km/h 12.0 mph /  19.3 km/h 96 % 0.01 in /  0.25 mm
20:23 32.6 °F /  0.3 °C 32.0 °F /  0 °C 29.57 in /  1001.2 hPa North 5.0 mph /  8 km/h 15.0 mph /  24.1 km/h 96 % 0.01 in /  0.25 mm
20:38 32.5 °F /  0.3 °C 32.0 °F /  0 °C 29.58 in /  1001.6 hPa NW 5.0 mph /  8 km/h 15.0 mph /  24.1 km/h 96 % 0.01 in /  0.25 mm
21:24 31.6 °F /  -0.2 °C 31.0 °F /  -0.6 °C 29.61 in /  1002.6 hPa North 4.0 mph /  6.4 km/h 16.0 mph /  25.7 km/h 96 % 0.00 in /  0 mm
21:54 30.6 °F /  -0.8 °C 30.0 °F /  -1.1 °C 29.64 in /  1003.6 hPa North 2.0 mph /  3.2 km/h 14.0 mph /  22.5 km/h 96 % 0.00 in /  0 mm
22:09 30.2 °F /  -1 °C 29.0 °F /  -1.7 °C 29.65 in /  1003.9 hPa North 8.0 mph /  12.9 km/h 16.0 mph /  25.7 km/h 96 % 0.00 in /  0 mm
22:24 29.9 °F /  -1.2 °C 29.0 °F /  -1.7 °C 29.66 in /  1004.3 hPa North 4.0 mph /  6.4 km/h 18.0 mph /  29 km/h 96 % 0.00 in /  0 mm
22:54 29.4 °F /  -1.4 °C 28.0 °F /  -2.2 °C 29.68 in /  1005 hPa North 5.0 mph /  8 km/h 15.0 mph /  24.1 km/h 96 % 0.00 in /  0 mm
23:09 29.3 °F /  -1.5 °C 28.0 °F /  -2.2 °C 29.70 in /  1005.6 hPa North 5.0 mph /  8 km/h 17.0 mph /  27.4 km/h 96 % 0.00 in /  0 mm
23:24 29.2 °F /  -1.6 °C 28.0 °F /  -2.2 °C 29.71 in /  1006 hPa North 12.0 mph /  19.3 km/h 15.0 mph /  24.1 km/h 96 % 0.00 in /  0 mm
23:54 29.0 °F /  -1.7 °C 28.0 °F /  -2.2 °C 29.72 in /  1006.3 hPa North 4.0 mph /  6.4 km/h 18.0 mph /  29 km/h 95 % 0.00 in /  0 mm
Des Moines Weather and Climate
Compliments of Weather Underground - 2.75 mb

Script developed by  Jim McMurry - jmcmurry@mwt.net Adapted for the template by  Wim van der Kuil - Leuven-Template.eu

You find our weather info also at:

Weather Underground

Equipment we use:

Weather-station
Davis VP2 Plus

Weather-program
Davis Weatherlink.Com

Weather-server
iMac (Retina 4K, 21.5-inch, Late 2015)

Provider
Hostmonster.com

Davis VP2 Plus

Davis Weatherlink.Com

iMac (Retina 4K, 21.5-inch, Late 2015)

Hostmonster.com